Time;durP1;ratioP1;P1;durP2;ratioP2;P2;SDS_P1;SDS_P2;PMS_P1;PMS_P2;Temp;Humidity;BMP_temperature;BMP_pressure;BME280_temperature;BME280_humidity;BME280_pressure;Samples;Min_cycle;Max_cycle;Signal;HPM_P1;HPM_P2
2022/01/24 00:00:50;;;;;;;11.20;9.57;;;2.50;99.90;;;;;;5014535;28;20046;-74
2022/01/24 00:03:15;;;;;;;8.70;7.35;;;2.40;99.90;;;;;;5025176;28;20026;-73
2022/01/24 00:05:41;;;;;;;9.35;7.50;;;2.40;99.90;;;;;;5023027;28;20046;-73
2022/01/24 00:08:07;;;;;;;11.43;8.75;;;2.30;99.90;;;;;;5028338;28;20053;-73
2022/01/24 00:10:35;;;;;;;10.27;7.95;;;2.20;99.90;;;;;;5031826;28;20026;-72
2022/01/24 00:18:31;;;;;;;8.73;7.53;;;2.20;99.90;;;;;;5018900;28;20033;-73
2022/01/24 00:29:26;;;;;;;10.00;8.93;;;2.10;99.90;;;;;;4981794;28;20499;-74
2022/01/24 00:31:54;;;;;;;9.88;8.82;;;2.10;99.90;;;;;;5009395;28;20034;-76
2022/01/24 00:34:20;;;;;;;10.05;8.98;;;2.10;99.90;;;;;;5017189;28;20049;-72
2022/01/24 00:36:49;;;;;;;9.60;8.38;;;2.00;99.90;;;;;;5027315;28;20069;-72
2022/01/24 00:39:15;;;;;;;10.90;9.15;;;2.00;99.90;;;;;;5025452;28;20040;-73
2022/01/24 00:41:51;;;;;;;11.70;9.27;;;2.00;99.90;;;;;;5014998;28;20022;-75
2022/01/24 00:47:06;;;;;;;10.82;8.75;;;2.00;99.90;;;;;;5014685;28;20083;-75
2022/01/24 00:54:44;;;;;;;10.52;8.63;;;1.90;99.90;;;;;;5025805;28;20075;-75
2022/01/24 00:57:11;;;;;;;12.75;8.70;;;1.80;99.90;;;;;;5035495;28;20513;-74
2022/01/24 00:59:37;;;;;;;11.52;9.00;;;1.80;99.90;;;;;;5017975;28;20112;-74
2022/01/24 01:02:04;;;;;;;14.00;9.77;;;1.90;99.90;;;;;;5014050;28;20041;-74
2022/01/24 01:04:53;;;;;;;11.18;10.00;;;1.90;99.90;;;;;;5029534;28;20048;-73
2022/01/24 01:07:54;;;;;;;12.18;9.68;;;2.00;99.90;;;;;;5014394;28;20428;-74
2022/01/24 01:18:33;;;;;;;13.10;10.55;;;1.70;99.90;;;;;;5014814;28;20080;-73
2022/01/24 01:23:30;;;;;;;11.07;9.43;;;1.70;99.90;;;;;;5014580;28;20117;-74
2022/01/24 01:25:57;;;;;;;11.60;9.68;;;1.70;99.90;;;;;;5014425;28;20050;-74
2022/01/24 01:28:24;;;;;;;11.73;8.93;;;1.70;99.90;;;;;;5014435;28;20049;-75
2022/01/24 01:30:53;;;;;;;12.02;9.85;;;1.60;99.90;;;;;;5013141;28;20112;-75
2022/01/24 01:33:34;;;;;;;12.75;10.07;;;1.50;99.90;;;;;;5013756;28;20108;-74
2022/01/24 01:38:44;;;;;;;11.57;10.25;;;1.50;99.90;;;;;;5016509;28;20037;-76
2022/01/24 01:55:36;;;;;;;11.63;9.38;;;1.30;99.90;;;;;;5013379;28;20026;-77
2022/01/24 01:57:43;;;;;;;11.77;9.75;;;1.40;99.90;;;;;;5010972;28;20038;-77
2022/01/24 02:00:10;;;;;;;12.45;9.95;;;1.30;99.90;;;;;;5014962;28;20037;-77
2022/01/24 02:02:36;;;;;;;12.63;9.88;;;1.30;99.90;;;;;;5029594;28;20472;-78
2022/01/24 02:05:01;;;;;;;12.57;9.52;;;1.20;99.90;;;;;;5029045;28;20141;-77
2022/01/24 02:07:27;;;;;;;11.80;9.23;;;1.20;99.90;;;;;;5029070;28;20041;-77
2022/01/24 02:09:52;;;;;;;13.23;9.93;;;1.30;99.90;;;;;;5025181;28;20026;-77
2022/01/24 02:12:22;;;;;;;17.58;11.50;;;1.20;99.90;;;;;;5022345;28;20154;-77
2022/01/24 02:14:54;;;;;;;11.77;10.27;;;1.20;99.90;;;;;;5014328;28;20474;-78
2022/01/24 02:17:31;;;;;;;13.68;9.40;;;1.20;99.90;;;;;;5013041;28;20029;-77
2022/01/24 02:20:26;;;;;;;10.95;9.60;;;1.10;99.90;;;;;;5028679;28;20033;-77
2022/01/24 02:23:15;;;;;;;12.70;11.25;;;1.20;99.90;;;;;;5013373;28;20033;-77
2022/01/24 02:25:37;;;;;;;12.20;10.68;;;1.20;99.90;;;;;;5013133;28;20028;-76
2022/01/24 02:28:04;;;;;;;13.27;10.60;;;1.20;99.90;;;;;;5014032;28;20018;-77
2022/01/24 02:33:15;;;;;;;12.70;11.02;;;1.00;99.90;;;;;;5014484;28;20055;-78
2022/01/24 02:35:40;;;;;;;12.68;9.43;;;1.10;99.90;;;;;;5012518;28;20472;-78
2022/01/24 02:38:17;;;;;;;12.27;10.27;;;1.10;99.90;;;;;;5014104;28;20413;-77
2022/01/24 02:40:43;;;;;;;12.50;9.80;;;1.10;99.90;;;;;;5012192;28;20136;-78
2022/01/24 02:48:22;;;;;;;11.57;9.88;;;1.00;99.90;;;;;;5018022;28;20092;-78
2022/01/24 02:48:47;;;;;;;11.60;9.80;;;1.00;99.90;;;;;;5016960;28;20169;-77
2022/01/24 02:53:41;;;;;;;11.93;9.90;;;1.10;99.90;;;;;;5025293;28;20030;-77
2022/01/24 02:56:07;;;;;;;13.95;10.18;;;1.00;99.90;;;;;;5019426;28;20077;-77
2022/01/24 02:58:33;;;;;;;11.60;9.70;;;1.00;99.90;;;;;;5039586;28;20034;-77
2022/01/24 03:01:00;;;;;;;14.95;10.63;;;1.00;99.90;;;;;;5040227;28;20034;-77
2022/01/24 03:03:26;;;;;;;11.07;9.25;;;1.10;99.90;;;;;;5040221;28;20018;-77
2022/01/24 03:05:51;;;;;;;11.95;9.95;;;1.00;99.90;;;;;;5035367;28;20036;-77
2022/01/24 03:08:20;;;;;;;11.07;9.95;;;1.00;99.90;;;;;;5037466;28;20018;-77
2022/01/24 03:10:47;;;;;;;11.63;9.90;;;1.00;99.90;;;;;;5019149;28;20029;-77
2022/01/24 03:15:43;;;;;;;11.48;10.05;;;1.00;99.90;;;;;;5020140;28;20057;-77
2022/01/24 03:18:10;;;;;;;11.75;9.75;;;0.90;99.90;;;;;;5018190;28;20367;-77
2022/01/24 03:20:37;;;;;;;10.88;9.18;;;1.00;99.90;;;;;;5033415;28;20084;-77
2022/01/24 03:23:03;;;;;;;11.48;9.10;;;0.90;99.90;;;;;;5018159;28;20025;-77
2022/01/24 03:25:29;;;;;;;12.38;10.23;;;1.00;99.90;;;;;;5016973;28;20022;-77
2022/01/24 03:27:56;;;;;;;12.18;9.30;;;1.00;99.90;;;;;;5015698;28;20018;-77
2022/01/24 03:30:22;;;;;;;12.43;8.90;;;1.00;99.90;;;;;;5016704;28;20053;-77
2022/01/24 03:32:48;;;;;;;12.48;9.77;;;1.00;99.90;;;;;;5017163;28;20025;-77
2022/01/24 03:35:14;;;;;;;10.35;8.95;;;0.90;99.90;;;;;;5017256;28;20022;-77
2022/01/24 03:37:39;;;;;;;11.80;9.68;;;0.80;99.90;;;;;;5032149;28;20494;-77
2022/01/24 03:40:06;;;;;;;10.88;9.75;;;0.80;99.90;;;;;;5017444;28;20029;-77
2022/01/24 03:42:32;;;;;;;11.77;9.63;;;0.80;99.90;;;;;;5017046;28;20026;-77
2022/01/24 03:45:01;;;;;;;11.18;9.35;;;0.80;99.90;;;;;;5017540;28;20053;-77
2022/01/24 03:49:56;;;;;;;11.13;9.02;;;0.70;99.90;;;;;;5016950;28;20026;-77
2022/01/24 03:52:22;;;;;;;11.63;9.80;;;0.60;99.90;;;;;;5016513;28;20025;-76
2022/01/24 03:54:49;;;;;;;15.23;9.13;;;0.60;99.90;;;;;;5016996;28;20053;-77
2022/01/24 03:57:17;;;;;;;11.27;8.93;;;0.60;99.90;;;;;;5016582;28;20044;-77
2022/01/24 03:59:43;;;;;;;12.55;9.85;;;0.60;99.90;;;;;;5017110;28;20026;-77
2022/01/24 04:02:11;;;;;;;11.23;9.63;;;0.60;99.90;;;;;;5019541;28;20030;-77
2022/01/24 04:04:36;;;;;;;15.20;10.05;;;0.60;99.90;;;;;;5021561;28;20025;-77
2022/01/24 04:07:03;;;;;;;12.95;11.00;;;0.60;99.90;;;;;;5021049;28;20018;-77
2022/01/24 04:09:28;;;;;;;10.88;9.05;;;0.60;99.90;;;;;;5017161;28;20018;-77
2022/01/24 04:11:57;;;;;;;12.98;10.05;;;0.60;99.90;;;;;;5017173;28;20022;-77
2022/01/24 04:17:22;;;;;;;10.38;9.13;;;0.60;99.90;;;;;;5016793;28;20053;-77
2022/01/24 04:22:36;;;;;;;14.10;10.95;;;0.50;99.90;;;;;;5020946;28;20040;-77
2022/01/24 04:25:04;;;;;;;11.73;9.13;;;0.50;99.90;;;;;;5039726;28;20022;-77
2022/01/24 04:27:30;;;;;;;14.05;10.88;;;0.50;99.90;;;;;;5003162;28;20025;-77
2022/01/24 04:29:57;;;;;;;11.93;10.32;;;0.50;99.90;;;;;;5017634;28;20402;-78
2022/01/24 04:32:23;;;;;;;12.45;9.85;;;0.50;99.90;;;;;;5016341;28;20029;-77
2022/01/24 04:34:49;;;;;;;12.68;9.95;;;0.50;99.90;;;;;;5017165;28;20482;-78
2022/01/24 04:37:16;;;;;;;13.70;10.10;;;0.50;99.90;;;;;;5031655;28;20038;-77
2022/01/24 04:39:43;;;;;;;13.38;10.38;;;0.50;99.90;;;;;;5015531;28;20030;-77
2022/01/24 04:42:14;;;;;;;15.27;10.10;;;0.50;99.90;;;;;;5015125;28;20037;-78
2022/01/24 04:45:20;;;;;;;;;;;0.50;99.90;;;;;;5016018;28;20032;-77
2022/01/24 04:50:19;;;;;;;20.67;10.57;;;0.50;99.90;;;;;;5014954;28;19912;-78
2022/01/24 04:53:11;;;;;;;13.82;9.27;;;0.50;99.90;;;;;;5023354;28;20072;-76
2022/01/24 04:55:37;;;;;;;14.68;9.07;;;0.50;99.90;;;;;;5020380;28;20026;-76
2022/01/24 04:58:02;;;;;;;20.88;9.63;;;0.50;99.90;;;;;;5016999;28;20457;-76
2022/01/24 05:00:28;;;;;;;13.95;10.55;;;0.40;99.90;;;;;;5014623;28;20028;-76
2022/01/24 05:02:54;;;;;;;13.40;9.23;;;0.40;99.90;;;;;;5014495;28;20022;-77
2022/01/24 05:05:21;;;;;;;14.30;9.10;;;0.40;99.90;;;;;;5014545;28;20022;-77
2022/01/24 05:07:50;;;;;;;13.40;9.88;;;0.40;99.90;;;;;;5014262;28;20043;-78
2022/01/24 05:10:27;;;;;;;11.35;9.82;;;0.40;99.90;;;;;;5015174;28;20018;-77
2022/01/24 05:26:00;;;;;;;12.35;11.05;;;0.30;99.90;;;;;;5038419;28;20097;-76
2022/01/24 05:28:27;;;;;;;12.70;10.98;;;0.30;99.90;;;;;;5032977;28;20037;-77
2022/01/24 05:30:53;;;;;;;18.80;12.60;;;0.30;99.90;;;;;;5022255;28;20022;-77
2022/01/24 05:33:19;;;;;;;13.43;11.70;;;0.30;99.90;;;;;;5017446;28;20561;-79
2022/01/24 05:35:45;;;;;;;14.05;11.02;;;0.30;99.90;;;;;;5025444;28;20033;-76
2022/01/24 05:38:10;;;;;;;13.82;10.70;;;0.30;99.90;;;;;;5027480;28;20035;-76
2022/01/24 05:40:37;;;;;;;13.75;10.43;;;0.30;99.90;;;;;;5023513;28;20030;-77
2022/01/24 05:43:03;;;;;;;14.68;11.20;;;0.40;99.90;;;;;;5021152;28;20413;-77
2022/01/24 05:45:28;;;;;;;14.75;11.07;;;0.30;99.90;;;;;;5019021;28;20107;-78
2022/01/24 05:47:54;;;;;;;16.27;11.13;;;0.30;99.90;;;;;;5018727;28;20028;-77
2022/01/24 05:50:19;;;;;;;15.45;10.77;;;0.30;99.90;;;;;;5014666;28;20441;-77
2022/01/24 05:52:45;;;;;;;14.23;10.77;;;0.30;99.90;;;;;;5017254;28;20049;-77
2022/01/24 05:55:11;;;;;;;17.42;10.65;;;0.40;99.90;;;;;;5023513;28;20022;-77
2022/01/24 05:57:37;;;;;;;13.82;11.15;;;0.40;99.90;;;;;;5020022;28;20078;-77
2022/01/24 06:00:08;;;;;;;16.27;11.32;;;0.40;99.90;;;;;;5026157;28;20049;-77
2022/01/24 06:02:34;;;;;;;16.20;10.80;;;0.40;99.90;;;;;;5015750;28;20098;-77
2022/01/24 06:05:00;;;;;;;12.18;10.57;;;0.40;99.90;;;;;;5035799;28;20006;-77
2022/01/24 06:07:25;;;;;;;14.95;12.25;;;0.50;99.90;;;;;;5036665;28;20032;-76
2022/01/24 06:09:51;;;;;;;16.75;12.27;;;0.50;99.90;;;;;;5031616;28;20041;-77
2022/01/24 06:12:16;;;;;;;15.73;11.65;;;0.50;99.90;;;;;;5031743;28;20026;-77
2022/01/24 06:14:42;;;;;;;15.60;11.82;;;0.50;99.90;;;;;;5024632;28;20037;-78
2022/01/24 06:17:08;;;;;;;26.88;20.95;;;0.40;99.90;;;;;;5018273;28;20026;-77
2022/01/24 06:19:33;;;;;;;21.00;15.73;;;0.40;99.90;;;;;;5018257;28;20046;-76
2022/01/24 06:21:59;;;;;;;22.70;17.27;;;0.50;99.90;;;;;;5014737;28;20029;-76
2022/01/24 06:24:25;;;;;;;23.70;17.45;;;0.50;99.90;;;;;;5014393;28;20033;-76
2022/01/24 06:26:50;;;;;;;15.95;12.73;;;0.50;99.90;;;;;;5017847;28;20064;-76
2022/01/24 06:29:17;;;;;;;18.15;13.05;;;0.60;99.90;;;;;;5018281;28;20026;-76
2022/01/24 06:31:43;;;;;;;19.48;12.23;;;0.60;99.90;;;;;;5017505;28;20393;-77
2022/01/24 06:34:08;;;;;;;13.85;11.35;;;0.60;99.90;;;;;;5015736;28;20258;-77
2022/01/24 06:36:34;;;;;;;22.35;13.40;;;0.60;99.90;;;;;;5014347;28;20505;-76
2022/01/24 06:39:01;;;;;;;15.90;12.45;;;0.60;99.90;;;;;;5017343;28;20108;-76
2022/01/24 06:41:32;;;;;;;16.65;11.55;;;0.70;99.90;;;;;;5018192;28;20041;-77
2022/01/24 06:43:57;;;;;;;;;;;0.80;99.90;;;;;;5017493;28;20385;-77
2022/01/24 06:46:23;;;;;;;14.50;10.70;;;0.90;99.90;;;;;;5016666;28;19906;-77
2022/01/24 06:48:49;;;;;;;17.45;12.60;;;1.00;99.90;;;;;;5016118;28;20084;-76
2022/01/24 06:51:14;;;;;;;17.25;12.10;;;1.00;99.90;;;;;;5013746;28;20021;-76
2022/01/24 06:53:41;;;;;;;15.80;11.25;;;1.10;99.90;;;;;;5014355;28;20547;-75
2022/01/24 06:56:07;;;;;;;13.70;10.95;;;1.10;99.90;;;;;;5015111;28;20529;-77
2022/01/24 06:58:34;;;;;;;18.60;11.75;;;1.10;99.90;;;;;;4998629;28;20409;-77
2022/01/24 07:01:00;;;;;;;15.43;11.05;;;1.20;99.90;;;;;;5014404;28;20029;-76
2022/01/24 07:03:26;;;;;;;15.20;10.68;;;1.30;99.90;;;;;;5013937;28;20026;-78
2022/01/24 07:05:52;;;;;;;12.52;9.98;;;1.40;99.90;;;;;;5014298;28;20025;-77
2022/01/24 07:08:17;;;;;;;14.65;10.27;;;1.50;99.90;;;;;;5013632;28;20026;-77
2022/01/24 07:10:43;;;;;;;13.82;9.45;;;1.50;99.90;;;;;;5013770;28;20497;-77
2022/01/24 07:13:09;;;;;;;12.93;9.48;;;1.50;99.90;;;;;;5013941;28;20057;-76
2022/01/24 07:15:43;;;;;;;13.85;9.50;;;1.60;99.90;;;;;;5015457;28;20080;-77
2022/01/24 07:20:56;;;;;;;14.32;10.30;;;1.60;99.90;;;;;;5015008;28;20027;-77
2022/01/24 07:23:22;;;;;;;12.02;9.32;;;1.50;99.90;;;;;;5018923;28;20030;-77
2022/01/24 07:25:48;;;;;;;12.70;9.93;;;1.60;99.90;;;;;;5020288;28;20050;-77
2022/01/24 07:28:15;;;;;;;17.48;12.25;;;1.50;99.90;;;;;;5019882;28;20393;-77
2022/01/24 07:30:41;;;;;;;14.57;11.73;;;1.50;99.90;;;;;;5016166;28;20501;-77
2022/01/24 07:33:07;;;;;;;15.27;10.88;;;1.60;99.90;;;;;;5020185;28;20026;-77
2022/01/24 07:35:33;;;;;;;12.73;10.10;;;1.60;99.90;;;;;;5024449;28;20033;-77
2022/01/24 07:37:59;;;;;;;15.20;10.23;;;1.70;99.90;;;;;;5030668;28;20033;-76
2022/01/24 07:40:25;;;;;;;13.43;10.45;;;1.70;99.90;;;;;;5035150;28;20006;-77
2022/01/24 07:42:55;;;;;;;14.45;10.63;;;1.80;99.90;;;;;;5037445;28;20085;-77
2022/01/24 07:45:22;;;;;;;17.23;11.60;;;1.80;99.90;;;;;;5038468;28;20033;-76
2022/01/24 07:47:49;;;;;;;13.48;10.32;;;1.90;99.90;;;;;;5033658;28;20026;-77
2022/01/24 07:50:23;;;;;;;13.32;10.43;;;1.90;99.90;;;;;;5024256;28;20054;-77
2022/01/24 07:52:49;;;;;;;13.48;10.60;;;1.90;99.90;;;;;;5023370;28;20099;-77
2022/01/24 07:55:14;;;;;;;12.98;10.55;;;2.00;99.90;;;;;;5022988;28;20108;-77
2022/01/24 07:57:40;;;;;;;16.95;10.77;;;2.30;99.90;;;;;;5031397;28;20353;-78
2022/01/24 08:00:07;;;;;;;14.27;9.93;;;2.40;99.90;;;;;;5035957;28;20088;-77
2022/01/24 08:02:33;;;;;;;14.98;10.25;;;2.30;99.90;;;;;;5038413;28;20050;-78
2022/01/24 08:04:59;;;;;;;16.55;10.82;;;2.30;99.90;;;;;;5030959;28;20037;-78
2022/01/24 08:07:25;;;;;;;15.60;10.73;;;2.30;99.90;;;;;;5026565;28;20026;-78
2022/01/24 08:09:50;;;;;;;14.80;11.18;;;2.30;99.90;;;;;;5025533;28;20076;-78
2022/01/24 08:12:17;;;;;;;15.77;10.55;;;2.30;99.90;;;;;;5024484;28;20057;-79
2022/01/24 08:14:43;;;;;;;16.50;11.07;;;2.30;99.90;;;;;;5023412;28;20052;-78
2022/01/24 08:17:09;;;;;;;12.75;10.30;;;2.30;99.90;;;;;;5025307;28;20034;-78
2022/01/24 08:19:34;;;;;;;13.13;10.27;;;2.20;99.90;;;;;;5024341;28;20076;-78
2022/01/24 08:22:00;;;;;;;12.80;9.40;;;2.30;99.90;;;;;;5022173;28;20030;-78
2022/01/24 08:24:26;;;;;;;14.55;10.98;;;2.40;99.90;;;;;;5037238;28;20028;-78
2022/01/24 08:26:52;;;;;;;16.63;11.93;;;2.50;99.90;;;;;;5025228;28;20034;-77
2022/01/24 08:29:17;;;;;;;15.10;11.32;;;2.50;99.90;;;;;;5025287;28;20022;-78
2022/01/24 08:31:43;;;;;;;11.95;10.02;;;2.50;99.90;;;;;;5022695;28;20064;-77
2022/01/24 08:34:09;;;;;;;14.02;11.27;;;2.60;99.90;;;;;;5020960;28;20053;-77
2022/01/24 08:36:34;;;;;;;19.17;13.43;;;2.60;99.90;;;;;;5022100;28;20065;-78
2022/01/24 08:39:07;;;;;;;15.52;11.93;;;2.70;99.90;;;;;;5021840;28;20029;-77
2022/01/24 08:41:58;;;;;;;17.40;11.05;;;2.80;99.90;;;;;;5024738;28;20037;-78
2022/01/24 08:47:09;;;;;;;14.90;10.85;;;2.80;99.90;;;;;;5022073;28;20125;-77
2022/01/24 08:49:35;;;;;;;18.00;11.00;;;2.90;99.90;;;;;;5024814;28;20037;-78
2022/01/24 08:52:00;;;;;;;16.83;12.73;;;3.00;99.90;;;;;;5024851;28;20022;-76
2022/01/24 08:54:27;;;;;;;18.05;12.88;;;3.10;99.90;;;;;;5020144;28;20037;-78
2022/01/24 08:56:53;;;;;;;14.48;12.50;;;3.10;99.90;;;;;;5025700;28;20010;-76
2022/01/24 08:59:21;;;;;;;14.57;11.27;;;3.60;99.90;;;;;;5038684;28;20026;-77
2022/01/24 09:01:47;;;;;;;15.55;11.82;;;3.70;99.90;;;;;;5036979;28;20018;-77
2022/01/24 09:04:13;;;;;;;15.30;11.90;;;3.90;99.90;;;;;;5038496;28;20013;-76
2022/01/24 09:06:40;;;;;;;15.65;11.75;;;3.90;99.90;;;;;;5035970;28;20010;-76
2022/01/24 09:09:05;;;;;;;13.13;11.43;;;3.90;99.90;;;;;;5032522;28;20105;-77
2022/01/24 09:11:34;;;;;;;15.57;12.30;;;3.70;99.90;;;;;;5029500;28;20058;-77
2022/01/24 09:14:01;;;;;;;14.93;11.82;;;3.70;99.90;;;;;;5022540;28;20029;-76
2022/01/24 09:16:27;;;;;;;16.02;12.10;;;3.90;99.90;;;;;;5028536;28;20025;-76
2022/01/24 09:18:53;;;;;;;18.75;11.73;;;4.00;99.90;;;;;;5023167;28;20034;-77
2022/01/24 09:21:19;;;;;;;14.38;12.43;;;4.00;99.90;;;;;;5026929;28;20038;-79
2022/01/24 09:23:45;;;;;;;17.30;11.60;;;4.20;99.90;;;;;;5035217;28;20054;-77
2022/01/24 09:26:12;;;;;;;13.80;12.23;;;4.40;99.90;;;;;;5035078;28;20045;-77
2022/01/24 09:28:38;;;;;;;13.15;11.77;;;4.40;99.90;;;;;;5033846;28;20072;-75
2022/01/24 09:31:03;;;;;;;18.83;12.32;;;4.40;99.90;;;;;;5034965;28;20030;-76
2022/01/24 09:33:29;;;;;;;15.95;11.40;;;4.40;99.90;;;;;;5035487;28;20017;-77
2022/01/24 09:35:59;;;;;;;17.35;12.70;;;4.30;99.90;;;;;;5033934;28;20030;-77
2022/01/24 09:38:30;;;;;;;18.85;12.95;;;4.20;99.90;;;;;;5026728;28;20026;-77
2022/01/24 09:40:57;;;;;;;20.50;14.43;;;4.30;99.90;;;;;;5027076;28;20036;-76
2022/01/24 09:43:23;;;;;;;21.42;13.25;;;4.40;99.90;;;;;;5023815;28;20026;-77
2022/01/24 09:45:48;;;;;;;18.52;13.35;;;4.30;99.90;;;;;;5022842;28;20103;-78
2022/01/24 09:48:16;;;;;;;23.15;14.10;;;4.40;99.90;;;;;;5019938;28;20018;-77
2022/01/24 09:50:42;;;;;;;17.63;13.88;;;4.50;99.90;;;;;;5019858;28;20037;-78
2022/01/24 09:53:08;;;;;;;19.60;14.57;;;4.70;99.90;;;;;;5018819;28;20025;-78
2022/01/24 09:55:34;;;;;;;15.82;13.13;;;4.80;99.90;;;;;;5028455;28;20029;-76
2022/01/24 09:57:59;;;;;;;16.73;13.23;;;4.90;99.90;;;;;;5029956;28;20026;-78
2022/01/24 10:00:29;;;;;;;13.05;11.75;;;4.70;99.90;;;;;;5028808;28;20081;-79
2022/01/24 10:02:56;;;;;;;16.00;12.27;;;4.90;99.90;;;;;;5016458;28;20080;-78
2022/01/24 10:05:33;;;;;;;12.27;10.98;;;4.80;99.90;;;;;;5020974;28;20022;-76
2022/01/24 10:08:01;;;;;;;14.95;11.60;;;4.90;99.90;;;;;;5018089;28;20098;-77
2022/01/24 10:10:41;;;;;;;12.95;10.98;;;5.10;99.90;;;;;;5021484;28;20042;-78
2022/01/24 10:16:36;;;;;;;12.05;10.85;;;5.10;99.90;;;;;;5017495;28;20100;-78
2022/01/24 10:19:04;;;;;;;14.48;10.23;;;5.10;99.90;;;;;;5015375;28;20116;-76
2022/01/24 10:21:40;;;;;;;13.77;12.32;;;5.20;99.90;;;;;;5017147;28;20120;-78
2022/01/24 10:24:06;;;;;;;13.48;11.32;;;5.30;99.90;;;;;;5016732;28;20018;-79
2022/01/24 10:26:31;;;;;;;15.65;10.25;;;5.10;99.90;;;;;;5020074;28;20036;-77
2022/01/24 10:28:57;;;;;;;12.45;10.02;;;5.30;99.90;;;;;;5020379;28;20033;-79
2022/01/24 10:31:28;;;;;;;12.18;10.48;;;5.30;99.90;;;;;;5038635;28;20030;-78
2022/01/24 10:36:35;;;;;;;11.55;9.32;;;5.50;99.90;;;;;;5024742;28;19913;-79
2022/01/24 10:39:56;;;;;;;10.48;9.13;;;5.60;99.90;;;;;;5034771;28;20026;-77
2022/01/24 10:44:52;;;;;;;14.18;9.90;;;5.50;99.90;;;;;;5021075;28;20073;-80
2022/01/24 10:47:22;;;;;;;10.48;9.45;;;5.50;99.90;;;;;;5035666;28;20018;-77
2022/01/24 10:49:49;;;;;;;10.43;9.40;;;5.60;99.90;;;;;;5036740;28;20040;-79
2022/01/24 10:52:21;;;;;;;10.00;9.07;;;5.90;99.90;;;;;;5021227;28;20033;-78
2022/01/24 10:54:49;;;;;;;9.68;8.02;;;6.00;99.90;;;;;;5020831;28;20407;-78
2022/01/24 10:57:26;;;;;;;11.20;7.85;;;6.00;99.90;;;;;;5038684;28;20022;-77
2022/01/24 11:00:20;;;;;;;9.50;8.60;;;6.00;99.90;;;;;;5026024;28;20057;-77
2022/01/24 11:02:49;;;;;;;11.68;8.50;;;5.80;99.90;;;;;;5027800;28;20034;-77
2022/01/24 11:05:22;;;;;;;9.07;8.18;;;5.70;99.90;;;;;;5028923;28;20018;-76
2022/01/24 11:07:56;;;;;;;11.90;10.23;;;5.70;99.90;;;;;;5033661;28;20064;-78
2022/01/24 11:10:43;;;;;;;10.65;8.82;;;5.80;99.90;;;;;;5031029;28;20018;-79
2022/01/24 11:13:10;;;;;;;11.02;8.40;;;6.20;99.90;;;;;;5023658;28;20383;-77
2022/01/24 11:15:44;;;;;;;10.77;8.65;;;6.20;99.90;;;;;;5022911;28;20470;-79
2022/01/24 11:18:14;;;;;;;8.82;7.93;;;6.20;99.90;;;;;;5023626;28;20033;-78
2022/01/24 11:20:44;;;;;;;11.05;8.25;;;6.30;99.90;;;;;;5038827;28;20129;-79
2022/01/24 11:23:11;;;;;;;9.32;7.55;;;6.50;99.90;;;;;;5022288;28;20096;-78
2022/01/24 11:25:40;;;;;;;12.63;8.23;;;6.60;99.90;;;;;;5031865;28;20021;-78
2022/01/24 11:28:06;;;;;;;9.00;8.10;;;6.70;99.90;;;;;;5037211;28;20125;-77
2022/01/24 11:31:03;;;;;;;10.63;8.85;;;6.80;99.90;;;;;;5040367;28;20034;-77
2022/01/24 11:34:02;;;;;;;8.38;7.57;;;6.80;99.90;;;;;;5040319;28;20030;-78
2022/01/24 11:36:37;;;;;;;9.90;8.75;;;6.80;99.90;;;;;;5032207;28;20474;-78
2022/01/24 11:39:03;;;;;;;10.07;8.23;;;6.80;99.90;;;;;;5033589;28;20025;-77
2022/01/24 11:41:34;;;;;;;12.45;7.05;;;6.80;99.90;;;;;;5033301;28;20056;-78
2022/01/24 11:44:09;;;;;;;11.10;7.50;;;6.90;99.90;;;;;;5019260;28;20030;-79
2022/01/24 11:46:55;;;;;;;8.30;7.50;;;6.90;99.90;;;;;;5027896;28;20104;-77
2022/01/24 11:49:27;;;;;;;7.32;6.57;;;7.00;99.90;;;;;;5020879;28;20029;-79
2022/01/24 11:52:13;;;;;;;10.23;7.15;;;6.80;99.90;;;;;;5022044;28;20049;-77
2022/01/24 11:57:27;;;;;;;7.35;6.50;;;6.90;99.90;;;;;;5029920;28;20010;-77
2022/01/24 12:00:15;;;;;;;6.63;5.95;;;6.70;99.90;;;;;;5048948;28;20025;-79
2022/01/24 12:02:47;;;;;;;7.15;5.65;;;6.40;99.90;;;;;;5038557;28;20041;-77
2022/01/24 12:05:14;;;;;;;7.35;6.25;;;6.10;99.90;;;;;;5035436;28;20072;-79
2022/01/24 12:07:51;;;;;;;6.85;6.15;;;6.10;99.90;;;;;;5027308;28;20040;-79
2022/01/24 12:10:27;;;;;;;8.55;6.22;;;6.50;99.90;;;;;;5023754;28;20086;-78
2022/01/24 12:12:56;;;;;;;11.20;6.88;;;6.50;99.90;;;;;;5021041;28;20097;-78
2022/01/24 12:15:37;;;;;;;7.90;6.50;;;6.80;99.90;;;;;;5025311;28;20029;-79
2022/01/24 12:18:23;;;;;;;7.97;4.95;;;7.10;99.90;;;;;;5030522;28;20022;-79
2022/01/24 12:20:55;;;;;;;7.95;5.95;;;7.20;99.90;;;;;;5030539;28;20036;-80
2022/01/24 12:23:24;;;;;;;6.78;5.10;;;7.10;99.90;;;;;;5022411;28;20064;-78
2022/01/24 12:25:54;;;;;;;6.18;5.57;;;6.90;99.90;;;;;;5024433;28;20022;-79
2022/01/24 12:28:27;;;;;;;9.90;4.32;;;7.00;99.90;;;;;;5024249;28;20026;-78
2022/01/24 12:31:06;;;;;;;5.50;4.97;;;7.20;99.90;;;;;;5027519;28;20030;-77
2022/01/24 12:33:54;;;;;;;9.98;5.47;;;7.40;99.90;;;;;;5028531;28;20026;-78
2022/01/24 12:39:33;;;;;;;4.72;4.10;;;7.30;99.90;;;;;;5026798;28;20040;-77
2022/01/24 12:42:20;;;;;;;11.63;4.95;;;7.10;99.90;;;;;;5026923;28;20061;-78
2022/01/24 12:47:20;;;;;;;4.70;4.30;;;7.40;99.90;;;;;;5022688;28;20024;-77
2022/01/24 12:49:47;;;;;;;5.55;3.88;;;7.40;99.90;;;;;;5022403;28;20068;-79
2022/01/24 12:52:19;;;;;;;5.50;3.97;;;7.10;99.90;;;;;;5022006;28;20029;-78
2022/01/24 12:54:48;;;;;;;6.85;4.40;;;7.00;99.90;;;;;;5023038;28;20018;-77
2022/01/24 12:57:16;;;;;;;4.30;3.90;;;6.90;99.90;;;;;;5023710;28;20041;-79
2022/01/24 12:59:53;;;;;;;6.22;3.72;;;6.90;99.90;;;;;;5023146;28;20026;-79
2022/01/24 13:02:27;;;;;;;4.80;4.18;;;7.00;99.90;;;;;;5025825;28;20026;-78
2022/01/24 13:05:00;;;;;;;4.50;4.10;;;7.00;99.90;;;;;;5022386;28;20077;-79
2022/01/24 13:07:26;;;;;;;5.60;4.30;;;6.90;99.90;;;;;;5023854;28;20022;-79
2022/01/24 13:10:02;;;;;;;4.30;3.75;;;6.90;99.90;;;;;;5037374;28;20106;-77
2022/01/24 13:12:28;;;;;;;7.20;4.00;;;6.90;99.90;;;;;;5021406;28;20037;-78
2022/01/24 13:14:57;;;;;;;8.43;3.80;;;7.00;99.90;;;;;;5019747;28;20389;-77
2022/01/24 13:22:58;;;;;;;4.97;4.57;;;7.60;99.90;;;;;;5027664;28;20033;-78
2022/01/24 13:25:30;;;;;;;5.55;4.38;;;7.40;99.90;;;;;;5022596;28;20029;-79
2022/01/24 13:28:00;;;;;;;4.95;4.10;;;7.30;99.90;;;;;;5019601;28;20498;-78
2022/01/24 13:30:47;;;;;;;4.38;3.85;;;7.20;99.90;;;;;;5021828;28;20033;-78
2022/01/24 13:33:22;;;;;;;4.13;3.63;;;7.20;99.90;;;;;;5024575;28;20025;-78
2022/01/24 13:35:53;;;;;;;6.82;3.63;;;7.10;99.90;;;;;;5037360;28;20026;-77
2022/01/24 13:38:31;;;;;;;4.68;3.20;;;7.30;99.90;;;;;;5037491;23;20490;-75
2022/01/24 13:41:02;;;;;;;3.95;3.55;;;7.40;99.90;;;;;;5023523;28;20026;-73
2022/01/24 13:43:59;;;;;;;10.43;4.07;;;7.60;99.90;;;;;;5028687;28;20026;-72
2022/01/24 13:46:29;;;;;;;5.50;3.45;;;7.50;99.90;;;;;;5029293;28;20148;-74
2022/01/24 13:49:02;;;;;;;4.15;2.85;;;7.60;99.90;;;;;;5023941;28;20022;-75
2022/01/24 13:51:52;;;;;;;4.05;3.63;;;7.70;99.90;;;;;;5014931;28;20030;-73
2022/01/24 13:54:27;;;;;;;4.40;3.47;;;7.50;99.90;;;;;;5029483;28;20504;-73
2022/01/24 13:57:06;;;;;;;4.18;3.28;;;7.40;99.90;;;;;;5015169;28;20030;-74
2022/01/24 13:59:32;;;;;;;4.97;3.33;;;7.60;99.90;;;;;;5014388;28;20022;-74
2022/01/24 14:02:02;;;;;;;4.72;3.47;;;7.30;99.90;;;;;;5015266;28;20107;-74
2022/01/24 14:04:33;;;;;;;5.50;3.22;;;7.50;99.90;;;;;;5029257;28;20022;-73
2022/01/24 14:07:10;;;;;;;3.83;3.25;;;7.70;99.90;;;;;;5014056;28;20024;-73
2022/01/24 14:09:45;;;;;;;9.43;3.20;;;7.70;99.90;;;;;;5013581;28;20061;-73
2022/01/24 14:12:20;;;;;;;7.30;3.75;;;7.50;99.90;;;;;;5013776;28;20022;-73
2022/01/24 14:14:55;;;;;;;6.30;3.72;;;7.30;99.90;;;;;;5029222;28;20516;-73
2022/01/24 14:19:54;;;;;;;5.43;3.28;;;7.60;99.90;;;;;;5014263;28;20101;-73
2022/01/24 14:22:20;;;;;;;4.45;3.20;;;7.70;99.90;;;;;;5014330;28;20029;-74
2022/01/24 14:25:06;;;;;;;4.43;3.35;;;7.60;99.90;;;;;;5014377;28;20077;-75
2022/01/24 14:27:46;;;;;;;7.28;2.65;;;7.70;99.90;;;;;;5013872;28;20125;-74
2022/01/24 14:30:21;;;;;;;3.17;2.75;;;7.80;99.90;;;;;;5014113;28;20099;-74
2022/01/24 14:33:17;;;;;;;5.10;2.78;;;7.80;99.90;;;;;;5012956;28;20030;-75
2022/01/24 14:36:02;;;;;;;3.92;3.00;;;7.80;99.90;;;;;;5013045;28;20506;-74
2022/01/24 14:38:47;;;;;;;4.90;3.20;;;7.80;99.90;;;;;;5019055;28;20034;-73
2022/01/24 14:41:26;;;;;;;3.58;3.13;;;7.70;99.90;;;;;;5033453;28;20385;-72
2022/01/24 14:46:40;;;;;;;5.47;3.55;;;7.50;99.90;;;;;;5019174;28;20097;-74
2022/01/24 14:49:07;;;;;;;3.97;3.25;;;7.50;99.90;;;;;;5019881;28;20080;-73
2022/01/24 14:51:35;;;;;;;3.65;3.35;;;7.40;99.90;;;;;;5034086;28;20030;-74
2022/01/24 14:54:06;;;;;;;6.68;3.60;;;7.20;99.90;;;;;;5016720;28;20034;-73
2022/01/24 14:56:34;;;;;;;3.75;3.42;;;7.00;99.90;;;;;;5016790;28;20037;-73